sensor_id;sensor_type;location;lat;lon;timestamp;P1;durP1;ratioP1;P2;durP2;ratioP2
6505;SDS011;3286;49.858;8.768;2022-10-15T00:02:06;1.55;;;0.82;;
6505;SDS011;3286;49.858;8.768;2022-10-15T00:04:33;4.32;;;1.10;;
6505;SDS011;3286;49.858;8.768;2022-10-15T00:07:02;0.95;;;0.70;;
6505;SDS011;3286;49.858;8.768;2022-10-15T00:09:29;2.45;;;0.90;;
6505;SDS011;3286;49.858;8.768;2022-10-15T00:11:55;3.15;;;0.80;;
6505;SDS011;3286;49.858;8.768;2022-10-15T00:14:22;0.95;;;0.95;;
6505;SDS011;3286;49.858;8.768;2022-10-15T00:16:53;3.10;;;1.00;;
6505;SDS011;3286;49.858;8.768;2022-10-15T00:19:20;2.38;;;1.00;;
6505;SDS011;3286;49.858;8.768;2022-10-15T00:21:46;1.52;;;1.00;;
6505;SDS011;3286;49.858;8.768;2022-10-15T00:24:14;1.13;;;1.13;;
6505;SDS011;3286;49.858;8.768;2022-10-15T00:26:41;0.98;;;0.98;;
6505;SDS011;3286;49.858;8.768;2022-10-15T00:29:09;1.40;;;1.02;;
6505;SDS011;3286;49.858;8.768;2022-10-15T00:31:37;1.58;;;1.20;;
6505;SDS011;3286;49.858;8.768;2022-10-15T00:34:06;3.05;;;1.10;;
6505;SDS011;3286;49.858;8.768;2022-10-15T00:36:36;0.82;;;0.82;;
6505;SDS011;3286;49.858;8.768;2022-10-15T00:39:06;1.85;;;1.08;;
6505;SDS011;3286;49.858;8.768;2022-10-15T00:41:38;2.65;;;1.23;;
6505;SDS011;3286;49.858;8.768;2022-10-15T00:47:11;2.28;;;1.10;;
6505;SDS011;3286;49.858;8.768;2022-10-15T00:49:42;1.63;;;1.33;;
6505;SDS011;3286;49.858;8.768;2022-10-15T00:52:29;1.13;;;1.13;;
6505;SDS011;3286;49.858;8.768;2022-10-15T00:55:06;1.25;;;1.15;;
6505;SDS011;3286;49.858;8.768;2022-10-15T00:57:37;2.45;;;1.60;;
6505;SDS011;3286;49.858;8.768;2022-10-15T01:00:09;1.08;;;1.05;;
6505;SDS011;3286;49.858;8.768;2022-10-15T01:02:45;1.20;;;1.20;;
6505;SDS011;3286;49.858;8.768;2022-10-15T01:05:12;2.85;;;1.30;;
6505;SDS011;3286;49.858;8.768;2022-10-15T01:07:45;1.85;;;1.40;;
6505;SDS011;3286;49.858;8.768;2022-10-15T01:10:17;1.00;;;1.00;;
6505;SDS011;3286;49.858;8.768;2022-10-15T01:12:50;1.35;;;1.25;;
6505;SDS011;3286;49.858;8.768;2022-10-15T01:15:23;1.98;;;1.10;;
6505;SDS011;3286;49.858;8.768;2022-10-15T01:17:56;1.25;;;1.10;;
6505;SDS011;3286;49.858;8.768;2022-10-15T01:20:53;1.95;;;1.38;;
6505;SDS011;3286;49.858;8.768;2022-10-15T01:27:06;1.60;;;1.48;;
6505;SDS011;3286;49.858;8.768;2022-10-15T01:35:47;1.77;;;1.50;;
6505;SDS011;3286;49.858;8.768;2022-10-15T01:38:22;1.73;;;1.42;;
6505;SDS011;3286;49.858;8.768;2022-10-15T01:40:56;1.63;;;1.30;;
6505;SDS011;3286;49.858;8.768;2022-10-15T01:43:27;3.03;;;1.75;;
6505;SDS011;3286;49.858;8.768;2022-10-15T01:46:00;1.77;;;1.40;;
6505;SDS011;3286;49.858;8.768;2022-10-15T01:48:33;1.70;;;1.33;;
6505;SDS011;3286;49.858;8.768;2022-10-15T01:51:05;2.60;;;1.45;;
6505;SDS011;3286;49.858;8.768;2022-10-15T01:53:33;4.13;;;1.05;;
6505;SDS011;3286;49.858;8.768;2022-10-15T01:56:03;2.17;;;1.10;;
6505;SDS011;3286;49.858;8.768;2022-10-15T01:58:37;1.25;;;1.00;;
6505;SDS011;3286;49.858;8.768;2022-10-15T02:01:08;1.13;;;1.00;;
6505;SDS011;3286;49.858;8.768;2022-10-15T02:06:09;0.90;;;0.90;;
6505;SDS011;3286;49.858;8.768;2022-10-15T02:08:43;1.10;;;1.00;;
6505;SDS011;3286;49.858;8.768;2022-10-15T02:11:18;1.75;;;1.20;;
6505;SDS011;3286;49.858;8.768;2022-10-15T02:13:48;1.13;;;1.13;;
6505;SDS011;3286;49.858;8.768;2022-10-15T02:16:21;1.20;;;1.08;;
6505;SDS011;3286;49.858;8.768;2022-10-15T02:18:50;1.98;;;1.30;;
6505;SDS011;3286;49.858;8.768;2022-10-15T02:21:23;1.55;;;1.40;;
6505;SDS011;3286;49.858;8.768;2022-10-15T02:23:56;1.50;;;1.40;;
6505;SDS011;3286;49.858;8.768;2022-10-15T02:26:28;1.35;;;1.25;;
6505;SDS011;3286;49.858;8.768;2022-10-15T02:28:57;2.40;;;1.45;;
6505;SDS011;3286;49.858;8.768;2022-10-15T02:31:28;1.50;;;1.40;;
6505;SDS011;3286;49.858;8.768;2022-10-15T02:33:58;1.83;;;1.50;;
6505;SDS011;3286;49.858;8.768;2022-10-15T02:36:28;1.95;;;1.70;;
6505;SDS011;3286;49.858;8.768;2022-10-15T02:38:56;1.70;;;1.60;;
6505;SDS011;3286;49.858;8.768;2022-10-15T02:41:26;1.38;;;1.27;;
6505;SDS011;3286;49.858;8.768;2022-10-15T02:43:53;1.73;;;1.63;;
6505;SDS011;3286;49.858;8.768;2022-10-15T02:46:24;1.48;;;1.33;;
6505;SDS011;3286;49.858;8.768;2022-10-15T02:48:54;1.92;;;1.70;;
6505;SDS011;3286;49.858;8.768;2022-10-15T02:51:24;1.60;;;1.50;;
6505;SDS011;3286;49.858;8.768;2022-10-15T02:53:53;1.85;;;1.67;;
6505;SDS011;3286;49.858;8.768;2022-10-15T02:56:20;2.25;;;1.67;;
6505;SDS011;3286;49.858;8.768;2022-10-15T02:58:46;1.58;;;1.48;;
6505;SDS011;3286;49.858;8.768;2022-10-15T03:01:16;1.60;;;1.50;;
6505;SDS011;3286;49.858;8.768;2022-10-15T03:03:42;1.75;;;1.63;;
6505;SDS011;3286;49.858;8.768;2022-10-15T03:06:10;1.65;;;1.55;;
6505;SDS011;3286;49.858;8.768;2022-10-15T03:08:38;1.80;;;1.70;;
6505;SDS011;3286;49.858;8.768;2022-10-15T03:11:08;2.80;;;1.70;;
6505;SDS011;3286;49.858;8.768;2022-10-15T03:13:35;1.75;;;1.65;;
6505;SDS011;3286;49.858;8.768;2022-10-15T03:16:03;2.60;;;2.40;;
6505;SDS011;3286;49.858;8.768;2022-10-15T03:18:30;2.40;;;2.20;;
6505;SDS011;3286;49.858;8.768;2022-10-15T03:21:01;3.58;;;2.35;;
6505;SDS011;3286;49.858;8.768;2022-10-15T03:23:32;3.10;;;2.80;;
6505;SDS011;3286;49.858;8.768;2022-10-15T03:26:00;3.40;;;3.05;;
6505;SDS011;3286;49.858;8.768;2022-10-15T03:28:26;3.83;;;3.40;;
6505;SDS011;3286;49.858;8.768;2022-10-15T03:30:53;5.40;;;4.30;;
6505;SDS011;3286;49.858;8.768;2022-10-15T03:33:25;8.00;;;3.67;;
6505;SDS011;3286;49.858;8.768;2022-10-15T03:36:00;4.63;;;3.90;;
6505;SDS011;3286;49.858;8.768;2022-10-15T03:38:32;5.78;;;4.35;;
6505;SDS011;3286;49.858;8.768;2022-10-15T03:40:59;4.35;;;3.95;;
6505;SDS011;3286;49.858;8.768;2022-10-15T03:43:26;4.45;;;3.75;;
6505;SDS011;3286;49.858;8.768;2022-10-15T03:45:52;5.78;;;3.67;;
6505;SDS011;3286;49.858;8.768;2022-10-15T03:48:19;7.20;;;3.97;;
6505;SDS011;3286;49.858;8.768;2022-10-15T03:50:45;5.00;;;4.05;;
6505;SDS011;3286;49.858;8.768;2022-10-15T03:53:12;6.15;;;4.07;;
6505;SDS011;3286;49.858;8.768;2022-10-15T03:55:40;6.57;;;4.38;;
6505;SDS011;3286;49.858;8.768;2022-10-15T03:58:07;9.23;;;4.53;;
6505;SDS011;3286;49.858;8.768;2022-10-15T04:00:33;4.80;;;4.10;;
6505;SDS011;3286;49.858;8.768;2022-10-15T04:03:04;4.90;;;4.40;;
6505;SDS011;3286;49.858;8.768;2022-10-15T04:05:33;4.93;;;4.28;;
6505;SDS011;3286;49.858;8.768;2022-10-15T04:08:00;4.38;;;3.83;;
6505;SDS011;3286;49.858;8.768;2022-10-15T04:10:26;5.88;;;4.53;;
6505;SDS011;3286;49.858;8.768;2022-10-15T04:12:55;4.43;;;4.03;;
6505;SDS011;3286;49.858;8.768;2022-10-15T04:15:21;4.45;;;3.78;;
6505;SDS011;3286;49.858;8.768;2022-10-15T04:17:48;4.10;;;3.70;;
6505;SDS011;3286;49.858;8.768;2022-10-15T04:20:14;4.05;;;3.30;;
6505;SDS011;3286;49.858;8.768;2022-10-15T04:22:41;3.30;;;3.00;;
6505;SDS011;3286;49.858;8.768;2022-10-15T04:25:10;3.22;;;2.85;;
6505;SDS011;3286;49.858;8.768;2022-10-15T04:27:37;2.60;;;2.40;;
6505;SDS011;3286;49.858;8.768;2022-10-15T04:30:05;3.08;;;2.78;;
6505;SDS011;3286;49.858;8.768;2022-10-15T04:32:35;3.08;;;2.65;;
6505;SDS011;3286;49.858;8.768;2022-10-15T04:35:03;7.72;;;3.15;;
6505;SDS011;3286;49.858;8.768;2022-10-15T04:37:32;2.78;;;2.53;;
6505;SDS011;3286;49.858;8.768;2022-10-15T04:39:59;2.85;;;2.58;;
6505;SDS011;3286;49.858;8.768;2022-10-15T04:42:29;2.55;;;2.33;;
6505;SDS011;3286;49.858;8.768;2022-10-15T04:45:01;2.53;;;2.33;;
6505;SDS011;3286;49.858;8.768;2022-10-15T04:47:29;3.13;;;2.50;;
6505;SDS011;3286;49.858;8.768;2022-10-15T04:49:55;2.92;;;2.65;;
6505;SDS011;3286;49.858;8.768;2022-10-15T04:52:22;2.60;;;2.40;;
6505;SDS011;3286;49.858;8.768;2022-10-15T04:54:49;3.40;;;2.92;;
6505;SDS011;3286;49.858;8.768;2022-10-15T04:57:16;3.22;;;2.90;;
6505;SDS011;3286;49.858;8.768;2022-10-15T04:59:42;3.15;;;2.80;;
6505;SDS011;3286;49.858;8.768;2022-10-15T05:02:09;3.00;;;2.70;;
6505;SDS011;3286;49.858;8.768;2022-10-15T05:04:37;3.80;;;2.25;;
6505;SDS011;3286;49.858;8.768;2022-10-15T05:07:06;2.50;;;2.28;;
6505;SDS011;3286;49.858;8.768;2022-10-15T05:09:36;2.72;;;2.05;;
6505;SDS011;3286;49.858;8.768;2022-10-15T05:12:02;2.35;;;2.15;;
6505;SDS011;3286;49.858;8.768;2022-10-15T05:14:29;4.60;;;2.40;;
6505;SDS011;3286;49.858;8.768;2022-10-15T05:16:55;3.10;;;2.00;;
6505;SDS011;3286;49.858;8.768;2022-10-15T05:19:25;2.17;;;1.88;;
6505;SDS011;3286;49.858;8.768;2022-10-15T05:21:58;2.28;;;1.90;;
6505;SDS011;3286;49.858;8.768;2022-10-15T05:24:24;3.47;;;3.00;;
6505;SDS011;3286;49.858;8.768;2022-10-15T05:26:51;2.50;;;2.30;;
6505;SDS011;3286;49.858;8.768;2022-10-15T05:29:18;3.50;;;2.35;;
6505;SDS011;3286;49.858;8.768;2022-10-15T05:31:48;2.30;;;2.10;;
6505;SDS011;3286;49.858;8.768;2022-10-15T05:34:15;6.78;;;2.40;;
6505;SDS011;3286;49.858;8.768;2022-10-15T05:36:44;3.47;;;1.90;;
6505;SDS011;3286;49.858;8.768;2022-10-15T05:39:12;3.33;;;2.70;;
6505;SDS011;3286;49.858;8.768;2022-10-15T05:41:38;3.40;;;2.78;;
6505;SDS011;3286;49.858;8.768;2022-10-15T05:44:07;2.42;;;2.22;;
6505;SDS011;3286;49.858;8.768;2022-10-15T05:46:34;2.28;;;2.08;;
6505;SDS011;3286;49.858;8.768;2022-10-15T05:49:06;2.28;;;2.08;;
6505;SDS011;3286;49.858;8.768;2022-10-15T05:51:33;2.78;;;2.58;;
6505;SDS011;3286;49.858;8.768;2022-10-15T05:54:00;4.80;;;3.92;;
6505;SDS011;3286;49.858;8.768;2022-10-15T05:56:29;2.92;;;2.70;;
6505;SDS011;3286;49.858;8.768;2022-10-15T05:58:56;3.55;;;3.15;;
6505;SDS011;3286;49.858;8.768;2022-10-15T06:01:22;3.67;;;3.03;;
6505;SDS011;3286;49.858;8.768;2022-10-15T06:03:49;3.10;;;2.80;;
6505;SDS011;3286;49.858;8.768;2022-10-15T06:06:16;3.33;;;2.78;;
6505;SDS011;3286;49.858;8.768;2022-10-15T06:08:44;3.33;;;3.00;;
6505;SDS011;3286;49.858;8.768;2022-10-15T06:11:11;4.15;;;3.33;;
6505;SDS011;3286;49.858;8.768;2022-10-15T06:13:44;4.88;;;4.03;;
6505;SDS011;3286;49.858;8.768;2022-10-15T06:16:12;4.43;;;4.03;;
6505;SDS011;3286;49.858;8.768;2022-10-15T06:18:40;9.65;;;4.80;;
6505;SDS011;3286;49.858;8.768;2022-10-15T06:21:08;4.75;;;4.25;;
6505;SDS011;3286;49.858;8.768;2022-10-15T06:23:37;4.80;;;4.30;;
6505;SDS011;3286;49.858;8.768;2022-10-15T06:26:10;4.75;;;4.20;;
6505;SDS011;3286;49.858;8.768;2022-10-15T06:28:40;4.97;;;4.22;;
6505;SDS011;3286;49.858;8.768;2022-10-15T06:31:06;4.10;;;3.70;;
6505;SDS011;3286;49.858;8.768;2022-10-15T06:33:36;4.20;;;3.80;;
6505;SDS011;3286;49.858;8.768;2022-10-15T06:36:04;4.10;;;3.70;;
6505;SDS011;3286;49.858;8.768;2022-10-15T06:38:37;4.60;;;3.67;;
6505;SDS011;3286;49.858;8.768;2022-10-15T06:41:05;5.20;;;4.68;;
6505;SDS011;3286;49.858;8.768;2022-10-15T06:43:36;5.50;;;4.22;;
6505;SDS011;3286;49.858;8.768;2022-10-15T06:46:06;5.35;;;4.70;;
6505;SDS011;3286;49.858;8.768;2022-10-15T06:48:33;5.53;;;4.18;;
6505;SDS011;3286;49.858;8.768;2022-10-15T06:51:00;6.40;;;4.55;;
6505;SDS011;3286;49.858;8.768;2022-10-15T06:53:27;6.10;;;5.10;;
6505;SDS011;3286;49.858;8.768;2022-10-15T06:55:56;6.72;;;5.68;;
6505;SDS011;3286;49.858;8.768;2022-10-15T06:58:23;5.57;;;4.97;;
6505;SDS011;3286;49.858;8.768;2022-10-15T07:00:50;5.20;;;4.57;;
6505;SDS011;3286;49.858;8.768;2022-10-15T07:03:22;5.72;;;4.75;;
6505;SDS011;3286;49.858;8.768;2022-10-15T07:05:49;9.57;;;5.05;;
6505;SDS011;3286;49.858;8.768;2022-10-15T07:08:18;5.57;;;4.63;;
6505;SDS011;3286;49.858;8.768;2022-10-15T07:10:44;6.03;;;4.93;;
6505;SDS011;3286;49.858;8.768;2022-10-15T07:13:13;5.10;;;4.15;;
6505;SDS011;3286;49.858;8.768;2022-10-15T07:15:41;5.82;;;4.13;;
6505;SDS011;3286;49.858;8.768;2022-10-15T07:18:10;7.50;;;3.80;;
6505;SDS011;3286;49.858;8.768;2022-10-15T07:20:44;4.10;;;3.60;;
6505;SDS011;3286;49.858;8.768;2022-10-15T07:23:13;5.90;;;3.20;;
6505;SDS011;3286;49.858;8.768;2022-10-15T07:25:42;3.20;;;2.88;;
6505;SDS011;3286;49.858;8.768;2022-10-15T07:28:08;3.95;;;2.80;;
6505;SDS011;3286;49.858;8.768;2022-10-15T07:30:35;5.30;;;3.20;;
6505;SDS011;3286;49.858;8.768;2022-10-15T07:33:07;4.05;;;3.35;;
6505;SDS011;3286;49.858;8.768;2022-10-15T07:35:35;3.10;;;2.80;;
6505;SDS011;3286;49.858;8.768;2022-10-15T07:38:03;3.10;;;2.80;;
6505;SDS011;3286;49.858;8.768;2022-10-15T07:40:30;3.55;;;2.80;;
6505;SDS011;3286;49.858;8.768;2022-10-15T07:42:57;7.18;;;3.25;;
6505;SDS011;3286;49.858;8.768;2022-10-15T07:45:25;3.55;;;2.40;;
6505;SDS011;3286;49.858;8.768;2022-10-15T07:47:51;4.75;;;2.35;;
6505;SDS011;3286;49.858;8.768;2022-10-15T07:50:19;2.35;;;2.10;;
6505;SDS011;3286;49.858;8.768;2022-10-15T07:52:46;2.53;;;1.80;;
6505;SDS011;3286;49.858;8.768;2022-10-15T07:55:16;1.60;;;1.50;;
6505;SDS011;3286;49.858;8.768;2022-10-15T07:57:46;3.25;;;1.60;;
6505;SDS011;3286;49.858;8.768;2022-10-15T08:00:13;2.38;;;1.90;;
6505;SDS011;3286;49.858;8.768;2022-10-15T08:02:41;1.98;;;1.75;;
6505;SDS011;3286;49.858;8.768;2022-10-15T08:05:09;1.83;;;1.63;;
6505;SDS011;3286;49.858;8.768;2022-10-15T08:07:37;2.30;;;2.10;;
6505;SDS011;3286;49.858;8.768;2022-10-15T08:10:06;2.97;;;1.60;;
6505;SDS011;3286;49.858;8.768;2022-10-15T08:12:35;5.05;;;1.50;;
6505;SDS011;3286;49.858;8.768;2022-10-15T08:15:02;2.30;;;1.50;;
6505;SDS011;3286;49.858;8.768;2022-10-15T08:17:28;1.42;;;1.33;;
6505;SDS011;3286;49.858;8.768;2022-10-15T08:19:56;2.35;;;1.90;;
6505;SDS011;3286;49.858;8.768;2022-10-15T08:22:22;4.10;;;1.63;;
6505;SDS011;3286;49.858;8.768;2022-10-15T08:24:49;1.88;;;1.40;;
6505;SDS011;3286;49.858;8.768;2022-10-15T08:27:16;1.48;;;1.38;;
6505;SDS011;3286;49.858;8.768;2022-10-15T08:29:45;1.52;;;1.42;;
6505;SDS011;3286;49.858;8.768;2022-10-15T08:32:12;2.42;;;1.50;;
6505;SDS011;3286;49.858;8.768;2022-10-15T08:34:39;2.33;;;1.90;;
6505;SDS011;3286;49.858;8.768;2022-10-15T08:37:05;1.40;;;1.30;;
6505;SDS011;3286;49.858;8.768;2022-10-15T08:39:32;1.60;;;1.50;;
6505;SDS011;3286;49.858;8.768;2022-10-15T08:41:59;2.03;;;1.77;;
6505;SDS011;3286;49.858;8.768;2022-10-15T08:44:31;1.50;;;1.40;;
6505;SDS011;3286;49.858;8.768;2022-10-15T08:47:06;2.90;;;1.15;;
6505;SDS011;3286;49.858;8.768;2022-10-15T08:49:40;1.58;;;1.20;;
6505;SDS011;3286;49.858;8.768;2022-10-15T08:52:14;1.30;;;1.20;;
6505;SDS011;3286;49.858;8.768;2022-10-15T08:54:46;1.10;;;1.00;;
6505;SDS011;3286;49.858;8.768;2022-10-15T08:57:18;1.20;;;1.10;;
6505;SDS011;3286;49.858;8.768;2022-10-15T08:59:52;1.15;;;1.05;;
6505;SDS011;3286;49.858;8.768;2022-10-15T09:02:28;1.40;;;1.30;;
6505;SDS011;3286;49.858;8.768;2022-10-15T09:05:00;1.23;;;1.13;;
6505;SDS011;3286;49.858;8.768;2022-10-15T09:07:36;6.97;;;1.30;;
6505;SDS011;3286;49.858;8.768;2022-10-15T09:10:11;2.25;;;0.93;;
6505;SDS011;3286;49.858;8.768;2022-10-15T09:12:44;1.50;;;1.10;;
6505;SDS011;3286;49.858;8.768;2022-10-15T09:15:18;0.73;;;0.73;;
6505;SDS011;3286;49.858;8.768;2022-10-15T09:17:48;5.20;;;0.95;;
6505;SDS011;3286;49.858;8.768;2022-10-15T09:20:18;0.77;;;0.77;;
6505;SDS011;3286;49.858;8.768;2022-10-15T09:22:49;1.20;;;1.10;;
6505;SDS011;3286;49.858;8.768;2022-10-15T09:25:17;0.93;;;0.93;;
6505;SDS011;3286;49.858;8.768;2022-10-15T09:27:46;1.02;;;0.95;;
6505;SDS011;3286;49.858;8.768;2022-10-15T09:30:28;1.02;;;1.00;;
6505;SDS011;3286;49.858;8.768;2022-10-15T09:33:04;1.58;;;0.80;;
6505;SDS011;3286;49.858;8.768;2022-10-15T09:35:38;3.50;;;0.98;;
6505;SDS011;3286;49.858;8.768;2022-10-15T09:38:12;0.70;;;0.70;;
6505;SDS011;3286;49.858;8.768;2022-10-15T09:40:54;0.70;;;0.70;;
6505;SDS011;3286;49.858;8.768;2022-10-15T09:43:28;1.75;;;1.58;;
6505;SDS011;3286;49.858;8.768;2022-10-15T09:46:00;1.73;;;0.98;;
6505;SDS011;3286;49.858;8.768;2022-10-15T09:48:29;1.40;;;1.17;;
6505;SDS011;3286;49.858;8.768;2022-10-15T09:51:02;4.35;;;1.70;;
6505;SDS011;3286;49.858;8.768;2022-10-15T09:53:36;0.75;;;0.75;;
6505;SDS011;3286;49.858;8.768;2022-10-15T09:56:14;0.70;;;0.70;;
6505;SDS011;3286;49.858;8.768;2022-10-15T09:58:48;0.82;;;0.82;;
6505;SDS011;3286;49.858;8.768;2022-10-15T10:01:17;0.82;;;0.82;;
6505;SDS011;3286;49.858;8.768;2022-10-15T10:03:51;1.35;;;1.05;;
6505;SDS011;3286;49.858;8.768;2022-10-15T10:06:19;1.55;;;1.00;;
6505;SDS011;3286;49.858;8.768;2022-10-15T10:08:49;9.23;;;1.27;;
6505;SDS011;3286;49.858;8.768;2022-10-15T10:11:18;1.75;;;1.13;;
6505;SDS011;3286;49.858;8.768;2022-10-15T10:13:49;1.48;;;1.33;;
6505;SDS011;3286;49.858;8.768;2022-10-15T10:16:17;1.08;;;1.05;;
6505;SDS011;3286;49.858;8.768;2022-10-15T10:18:59;1.50;;;1.10;;
6505;SDS011;3286;49.858;8.768;2022-10-15T10:21:36;1.55;;;1.45;;
6505;SDS011;3286;49.858;8.768;2022-10-15T10:26:58;4.75;;;1.80;;
6505;SDS011;3286;49.858;8.768;2022-10-15T10:29:26;7.43;;;1.98;;
6505;SDS011;3286;49.858;8.768;2022-10-15T10:31:54;2.15;;;1.70;;
6505;SDS011;3286;49.858;8.768;2022-10-15T10:34:25;6.78;;;2.47;;
6505;SDS011;3286;49.858;8.768;2022-10-15T10:36:55;1.80;;;1.70;;
6505;SDS011;3286;49.858;8.768;2022-10-15T10:39:24;2.25;;;1.67;;
6505;SDS011;3286;49.858;8.768;2022-10-15T10:41:53;6.18;;;2.03;;
6505;SDS011;3286;49.858;8.768;2022-10-15T10:44:25;2.42;;;1.73;;
6505;SDS011;3286;49.858;8.768;2022-10-15T10:47:07;1.98;;;1.80;;
6505;SDS011;3286;49.858;8.768;2022-10-15T10:49:38;2.92;;;2.20;;
6505;SDS011;3286;49.858;8.768;2022-10-15T10:52:08;3.03;;;2.00;;
6505;SDS011;3286;49.858;8.768;2022-10-15T10:54:45;2.05;;;1.90;;
6505;SDS011;3286;49.858;8.768;2022-10-15T10:57:12;1.90;;;1.80;;
6505;SDS011;3286;49.858;8.768;2022-10-15T10:59:46;2.70;;;2.50;;
6505;SDS011;3286;49.858;8.768;2022-10-15T11:02:15;3.25;;;2.00;;
6505;SDS011;3286;49.858;8.768;2022-10-15T11:04:43;2.50;;;1.95;;
6505;SDS011;3286;49.858;8.768;2022-10-15T11:07:13;2.60;;;2.08;;
6505;SDS011;3286;49.858;8.768;2022-10-15T11:09:47;2.75;;;1.90;;
6505;SDS011;3286;49.858;8.768;2022-10-15T11:12:34;5.95;;;2.08;;
6505;SDS011;3286;49.858;8.768;2022-10-15T11:15:16;1.70;;;1.60;;
6505;SDS011;3286;49.858;8.768;2022-10-15T11:17:49;2.65;;;1.88;;
6505;SDS011;3286;49.858;8.768;2022-10-15T11:20:29;3.00;;;1.58;;
6505;SDS011;3286;49.858;8.768;2022-10-15T11:23:07;1.73;;;1.63;;
6505;SDS011;3286;49.858;8.768;2022-10-15T11:25:46;3.35;;;1.90;;
6505;SDS011;3286;49.858;8.768;2022-10-15T11:28:23;2.15;;;1.70;;
6505;SDS011;3286;49.858;8.768;2022-10-15T11:30:58;3.03;;;1.73;;
6505;SDS011;3286;49.858;8.768;2022-10-15T11:33:43;1.60;;;1.50;;
6505;SDS011;3286;49.858;8.768;2022-10-15T11:36:38;1.90;;;1.70;;
6505;SDS011;3286;49.858;8.768;2022-10-15T11:39:19;1.60;;;1.50;;
6505;SDS011;3286;49.858;8.768;2022-10-15T11:41:59;1.75;;;1.65;;
6505;SDS011;3286;49.858;8.768;2022-10-15T11:44:44;1.88;;;1.60;;
6505;SDS011;3286;49.858;8.768;2022-10-15T11:47:24;3.25;;;1.60;;
6505;SDS011;3286;49.858;8.768;2022-10-15T11:50:04;2.13;;;1.40;;
6505;SDS011;3286;49.858;8.768;2022-10-15T11:52:46;1.40;;;1.30;;
6505;SDS011;3286;49.858;8.768;2022-10-15T11:55:22;2.40;;;1.60;;
6505;SDS011;3286;49.858;8.768;2022-10-15T11:57:56;1.30;;;1.20;;
6505;SDS011;3286;49.858;8.768;2022-10-15T12:00:29;2.22;;;1.10;;
6505;SDS011;3286;49.858;8.768;2022-10-15T12:03:00;4.13;;;1.38;;
6505;SDS011;3286;49.858;8.768;2022-10-15T12:05:32;3.50;;;0.82;;
6505;SDS011;3286;49.858;8.768;2022-10-15T12:08:04;2.65;;;1.23;;
6505;SDS011;3286;49.858;8.768;2022-10-15T12:10:38;13.45;;;2.70;;
6505;SDS011;3286;49.858;8.768;2022-10-15T12:13:21;2.83;;;1.27;;
6505;SDS011;3286;49.858;8.768;2022-10-15T12:15:55;1.58;;;1.48;;
6505;SDS011;3286;49.858;8.768;2022-10-15T12:18:32;9.75;;;1.20;;
6505;SDS011;3286;49.858;8.768;2022-10-15T12:24:00;3.70;;;1.20;;
6505;SDS011;3286;49.858;8.768;2022-10-15T12:26:28;2.28;;;1.38;;
6505;SDS011;3286;49.858;8.768;2022-10-15T12:28:57;7.82;;;1.63;;
6505;SDS011;3286;49.858;8.768;2022-10-15T12:31:33;2.83;;;1.10;;
6505;SDS011;3286;49.858;8.768;2022-10-15T12:34:22;4.30;;;1.05;;
6505;SDS011;3286;49.858;8.768;2022-10-15T12:37:02;1.23;;;1.08;;
6505;SDS011;3286;49.858;8.768;2022-10-15T12:39:34;2.17;;;1.20;;
6505;SDS011;3286;49.858;8.768;2022-10-15T12:42:04;2.95;;;1.10;;
6505;SDS011;3286;49.858;8.768;2022-10-15T12:44:47;2.38;;;1.10;;
6505;SDS011;3286;49.858;8.768;2022-10-15T12:47:14;1.15;;;0.90;;
6505;SDS011;3286;49.858;8.768;2022-10-15T12:50:15;2.63;;;1.00;;
6505;SDS011;3286;49.858;8.768;2022-10-15T12:52:57;3.63;;;1.17;;
6505;SDS011;3286;49.858;8.768;2022-10-15T12:55:31;2.20;;;1.23;;
6505;SDS011;3286;49.858;8.768;2022-10-15T12:58:05;2.35;;;0.82;;
6505;SDS011;3286;49.858;8.768;2022-10-15T13:00:57;2.50;;;1.02;;
6505;SDS011;3286;49.858;8.768;2022-10-15T13:03:34;1.67;;;1.00;;
6505;SDS011;3286;49.858;8.768;2022-10-15T13:06:11;1.67;;;0.95;;
6505;SDS011;3286;49.858;8.768;2022-10-15T13:08:42;3.90;;;1.10;;
6505;SDS011;3286;49.858;8.768;2022-10-15T13:11:16;4.43;;;1.00;;
6505;SDS011;3286;49.858;8.768;2022-10-15T13:13:46;2.15;;;1.00;;
6505;SDS011;3286;49.858;8.768;2022-10-15T13:16:16;1.45;;;0.90;;
6505;SDS011;3286;49.858;8.768;2022-10-15T13:18:42;1.10;;;1.00;;
6505;SDS011;3286;49.858;8.768;2022-10-15T13:21:14;5.25;;;1.20;;
6505;SDS011;3286;49.858;8.768;2022-10-15T13:23:43;1.38;;;0.82;;
6505;SDS011;3286;49.858;8.768;2022-10-15T13:26:20;2.05;;;1.15;;
6505;SDS011;3286;49.858;8.768;2022-10-15T13:28:50;0.65;;;0.57;;
6505;SDS011;3286;49.858;8.768;2022-10-15T13:31:18;1.38;;;0.82;;
6505;SDS011;3286;49.858;8.768;2022-10-15T13:33:48;0.70;;;0.70;;
6505;SDS011;3286;49.858;8.768;2022-10-15T13:36:19;2.97;;;1.73;;
6505;SDS011;3286;49.858;8.768;2022-10-15T13:38:56;1.52;;;1.00;;
6505;SDS011;3286;49.858;8.768;2022-10-15T13:41:26;3.38;;;1.27;;
6505;SDS011;3286;49.858;8.768;2022-10-15T13:43:55;3.17;;;1.02;;
6505;SDS011;3286;49.858;8.768;2022-10-15T13:46:25;2.78;;;1.52;;
6505;SDS011;3286;49.858;8.768;2022-10-15T13:48:56;2.25;;;1.25;;
6505;SDS011;3286;49.858;8.768;2022-10-15T13:51:25;1.20;;;1.10;;
6505;SDS011;3286;49.858;8.768;2022-10-15T13:53:57;2.97;;;1.10;;
6505;SDS011;3286;49.858;8.768;2022-10-15T13:56:27;3.55;;;1.17;;
6505;SDS011;3286;49.858;8.768;2022-10-15T13:58:56;1.17;;;1.10;;
6505;SDS011;3286;49.858;8.768;2022-10-15T14:01:25;2.58;;;1.33;;
6505;SDS011;3286;49.858;8.768;2022-10-15T14:03:53;1.52;;;1.42;;
6505;SDS011;3286;49.858;8.768;2022-10-15T14:06:21;2.60;;;1.40;;
6505;SDS011;3286;49.858;8.768;2022-10-15T14:08:50;6.22;;;1.15;;
6505;SDS011;3286;49.858;8.768;2022-10-15T14:11:18;2.45;;;1.60;;
6505;SDS011;3286;49.858;8.768;2022-10-15T14:13:48;1.98;;;1.40;;
6505;SDS011;3286;49.858;8.768;2022-10-15T14:16:17;4.28;;;1.45;;
6505;SDS011;3286;49.858;8.768;2022-10-15T14:18:47;2.80;;;1.50;;
6505;SDS011;3286;49.858;8.768;2022-10-15T14:21:17;3.58;;;1.55;;
6505;SDS011;3286;49.858;8.768;2022-10-15T14:23:45;2.22;;;1.00;;
6505;SDS011;3286;49.858;8.768;2022-10-15T14:26:22;1.20;;;1.00;;
6505;SDS011;3286;49.858;8.768;2022-10-15T14:28:58;1.85;;;1.17;;
6505;SDS011;3286;49.858;8.768;2022-10-15T14:31:30;1.25;;;1.15;;
6505;SDS011;3286;49.858;8.768;2022-10-15T14:34:03;1.40;;;1.20;;
6505;SDS011;3286;49.858;8.768;2022-10-15T14:36:30;5.22;;;1.15;;
6505;SDS011;3286;49.858;8.768;2022-10-15T14:39:23;0.90;;;0.90;;
6505;SDS011;3286;49.858;8.768;2022-10-15T14:41:56;1.20;;;0.88;;
6505;SDS011;3286;49.858;8.768;2022-10-15T14:44:25;0.70;;;0.70;;
6505;SDS011;3286;49.858;8.768;2022-10-15T14:47:09;1.95;;;0.90;;
6505;SDS011;3286;49.858;8.768;2022-10-15T14:49:45;1.65;;;0.90;;
6505;SDS011;3286;49.858;8.768;2022-10-15T14:52:13;1.20;;;1.02;;
6505;SDS011;3286;49.858;8.768;2022-10-15T14:54:45;0.82;;;0.82;;
6505;SDS011;3286;49.858;8.768;2022-10-15T14:57:26;1.20;;;0.90;;
6505;SDS011;3286;49.858;8.768;2022-10-15T14:59:57;1.10;;;1.00;;
6505;SDS011;3286;49.858;8.768;2022-10-15T15:02:26;2.80;;;1.00;;
6505;SDS011;3286;49.858;8.768;2022-10-15T15:05:03;1.35;;;1.20;;
6505;SDS011;3286;49.858;8.768;2022-10-15T15:07:32;1.08;;;0.90;;
6505;SDS011;3286;49.858;8.768;2022-10-15T15:09:59;2.05;;;1.20;;
6505;SDS011;3286;49.858;8.768;2022-10-15T15:12:27;3.13;;;0.90;;
6505;SDS011;3286;49.858;8.768;2022-10-15T15:14:58;2.15;;;1.55;;
6505;SDS011;3286;49.858;8.768;2022-10-15T15:17:28;2.85;;;1.00;;
6505;SDS011;3286;49.858;8.768;2022-10-15T15:19:59;1.35;;;1.10;;
6505;SDS011;3286;49.858;8.768;2022-10-15T15:22:26;1.05;;;1.00;;
6505;SDS011;3286;49.858;8.768;2022-10-15T15:24:55;1.95;;;1.00;;
6505;SDS011;3286;49.858;8.768;2022-10-15T15:27:26;1.77;;;1.45;;
6505;SDS011;3286;49.858;8.768;2022-10-15T15:29:56;2.85;;;1.17;;
6505;SDS011;3286;49.858;8.768;2022-10-15T15:32:24;2.22;;;1.10;;
6505;SDS011;3286;49.858;8.768;2022-10-15T15:34:51;2.20;;;1.20;;
6505;SDS011;3286;49.858;8.768;2022-10-15T15:37:22;3.28;;;1.00;;
6505;SDS011;3286;49.858;8.768;2022-10-15T15:39:51;1.70;;;1.15;;
6505;SDS011;3286;49.858;8.768;2022-10-15T15:42:20;0.90;;;0.90;;
6505;SDS011;3286;49.858;8.768;2022-10-15T15:44:50;1.10;;;1.00;;
6505;SDS011;3286;49.858;8.768;2022-10-15T15:47:19;1.15;;;1.00;;
6505;SDS011;3286;49.858;8.768;2022-10-15T15:49:48;1.27;;;1.10;;
6505;SDS011;3286;49.858;8.768;2022-10-15T15:52:14;3.42;;;1.17;;
6505;SDS011;3286;49.858;8.768;2022-10-15T15:54:43;6.80;;;3.97;;
6505;SDS011;3286;49.858;8.768;2022-10-15T15:57:10;4.10;;;3.70;;
6505;SDS011;3286;49.858;8.768;2022-10-15T15:59:43;2.45;;;2.25;;